Terminal Aerodrome Forecast
Issued by NWS

Home | Current Version | Previous Version | Text Only | Print | Product List | Glossary On
Versions: 1 2 3 4 5 6 7 8 9 10 11 12 13 14 15 16 17 18 19 20 21 22 23 24 25 26 27 28
000
FTUS43 KLOT 271740
TAFGYY
TAF
KGYY 271740Z 2718/2818 25017G28KT P6SM OVC022
     FM272300 25012G20KT P6SM OVC030
     FM280100 24011G17KT P6SM BKN035
     FM280400 21006KT P6SM BKN035
     FM281200 15006KT P6SM BKN060 BKN150=

USA.gov is the U.S. government's official web portal to all federal, state and local government web resources and services.